Welker, Max
United StatesManBorn 19421989 – 2021Runner id 36155
Events
160
1989 – 2021
Best pace
9.956
km/h · 1991
Best finish
1st
of 8 · 2014
Distance raced
12,489
km · splits not double-counted
Pace over time
km/h · higher is faster
Pace over time: 160 races from 1989 to 2021, ranging from 1.85 to 11.06 kilometres per hour, where higher is faster. A second, age-graded series is drawn above it; the gap between the two is the age credit.
- Actual pace
- Age-graded pace
Results
| Date | Event | Distance | Result | Pace km/h | Placing |
|---|---|---|---|---|---|
| 1989-09-09 | 50mi | 8:48:12 h | 9.141 | 27/127 | |
| 1989-11-18 | 50mi | 8:49:13 h | 9.123 | 78/288 | |
| 1990-05-19 | Ice Age Trail 50 Mile RunUnited States | 50mi | 9:11:01 h | 8.762 | 56/217 |
| 1990-06-09 | Laurel Highlands 70 Mile UltraUnited States | 70.5mi | 17:40:51 h | 6.417 | 13/17 |
| 1990-07-21 | Vermont 100 Mile Endurance RaceUnited States | 100mi | 21:22:23 h | 7.530 | 32/126 |
| 1990-09-08 | McKenzie River 50 Mile Trail RunUnited States | 50mi | 8:58:21 h | 8.968 | 19/28 |
| 1990-11-17 | 50mi | 9:13:26 h | 8.724 | 108/312 | |
| 1990-12-29 | 24h | 183.014 km | 7.626 | 6/41 | |
| 1991-04-21 | Falls to Gasworks Ultra RunUnited States | 75km | 7:32:00 h | 9.956 | 18/31 |
| 1991-06-08 | Winterhawk 50 Mile Trail RunUnited States | 50mi | 9:18:50 h | 8.639 | 32/42 |
| 1991-08-17 | 100mi | 28:14:58 h | 5.697 | 84/147 | |
| 1991-10-12 | 50mi | 8:07:43 h | 9.899 | 29/63 | |
| 1992-08-22 | 100mi | 28:34:44 h | 5.631 | 91/139 | |
| 1992-09-12 | McKenzie River 50 Mile Trail RunUnited States | 50mi | 10:23:36 h | 7.742 | 32/45 |
| 1992-09-26 | 100mi | 30:47:28 h | 5.227 | 52/73 | |
| 1993-06-26 | Western States 100 Mile Endurance RunUnited States | 100mi | 26:38:46 h | 6.040 | 91/209 |
| 1993-07-31 | White River 50 Mile Trail RunUnited States | 47.6mi | 10:32:01 h | 7.272 | 23/43 |
| 1993-10-09 | 100mi | 23:13:06 h | 6.931 | 21/75 | |
| 1994-07-09 | 30mi | 7:38:33 h | 6.317 | 80/131 | |
| 1994-07-30 | White River 50 Mile Trail RunUnited States | 47.6mi | 10:17:34 h | 7.443 | 27/54 |
| 1994-09-09 | 100mi | 28:57:42 h | 5.557 | 40/109 | |
| 1994-10-08 | 100mi | 22:30:42 h | 7.149 | 17/80 | |
| 1995-01-21 | 50km | 5:13:27 h | 9.571 | 15/36 | |
| 1995-03-11 | Way Too Cool 50K Endurance RunUnited States | 50km | 5:46:48 h | 8.651 | 130/287 |
| 1995-03-18 | Chuckanut 50KUnited States | 50km | 5:46:40 h | 8.654 | 14/26 |
| 1995-07-29 | White River 50 Mile Trail RunUnited States | 47.6mi | 9:37:23 h | 7.961 | 32/72 |
| 1995-08-21 | 100mi | 27:18:00 h | 5.895 | 41/130 | |
| 1995-09-30 | Cle Elum Ridge 50kUnited States | 50km | 6:12:53 h | 8.045 | 23/63 |
| 1996-03-09 | Way Too Cool 50K Endurance RunUnited States | 50km | 6:28:52 h | 7.715 | 251/360 |
| 1996-03-16 | Chuckanut 50KUnited States | 50km | 8:16:03 h | 6.048 | 45/46 |
| 1996-04-21 | Falls to Gasworks Ultra RunUnited States | 83km | 8:41:27 h | 9.550 | 17/29 |
| 1996-06-01 | Winterhawk 50 Mile Trail RunUnited States | 50mi | 9:21:50 h | 8.593 | 23/45 |
| 1996-07-27 | White River 50 Mile Trail RunUnited States | 47.6mi | 10:21:33 h | 7.395 | 35/61 |
| 1996-08-24 | 100mi | 24:53:10 h | 6.467 | 36/157 | |
| 1996-08-31 | 100mi | 28:28:01 h | 5.653 | 13/17 | |
| 1996-09-28 | Cle Elum Ridge 50kUnited States | 50km | 6:49:40 h | 7.323 | 40/79 |
| 1996-10-12 | 100mi | 23:11:46 h | 6.938 | 20/73 | |
| 1997-07-12 | 30mi | 8:31:17 h | 5.666 | 117/146 | |
| 1997-07-26 | White River 50 Mile Trail RunUnited States | 47.6mi | 11:02:03 h | 6.943 | 52/67 |
| 1997-09-27 | Cle Elum Ridge 50kUnited States | 50km | 6:52:51 h | 7.267 | 48/111 |
| 1997-11-08 | Ron Herzog 50KUnited States | 50km | 5:47:00 h | 8.646 | 21/30 |
| 1998-01-17 | Bridle Trails Winter Running FestivalUnited States | 50km | 8:05:03 h | 6.185 | 24/26 |
| 1998-03-21 | Chuckanut 50KUnited States | 50km | 6:20:52 h | 7.877 | 51/69 |
| 1998-04-11 | 50km | 7:21:20 h | 6.798 | 54/71 | |
| 1998-05-03 | 50km | 6:37:47 h | 7.542 | 53/94 | |
| 1998-06-06 | 50mi | 9:23:00 h | 8.576 | 30/61 | |
| 1998-07-11 | 30mi | 8:07:05 h | 5.947 | 129/154 | |
| 1998-07-25 | White River 50 Mile Trail RunUnited States | 47.6mi | 11:19:01 h | 6.769 | 27/30 |
| 1998-09-05 | 100mi | 29:30:59 h | 5.452 | 16/23 | |
| 1998-09-26 | Cle Elum Ridge 50kUnited States | 50km | 7:13:54 h | 6.914 | 71/114 |
| 1999-07-24 | White River 50 Mile Trail RunUnited States | 47.6mi | 10:05:16 h | 7.594 | 33/60 |
| 1999-08-22 | 50mi | 10:19:37 h | 7.792 | 11/23 | |
| 1999-09-25 | 50km | 7:36:55 h | 6.566 | 72/95 | |
| 2000-04-08 | Diez Vista 50K Trail RunCanada | 50km | 7:45:32 h | 6.444 | 69/86 |
| 2000-06-03 | Shadow of the Giants 50KUnited States | 50km | 7:00:52 h | 7.128 | 64/102 |
| 2000-06-17 | 50km | 10:30:00 h | 4.762 | 32/33 | |
| 2000-07-29 | 47.6mi | 11:28:27 h | 6.676 | 48/54 | |
| 2000-08-12 | Glacier Peak Trail RunUnited States | 34mi | 7:41:05 h | 7.120 | 11/17 |
| 2000-10-28 | Palo Duro 50 km Trail RunUnited States | 50km | 6:45:20 h | 7.401 | 25/40 |
| 2001-02-10 | Jed Smith Ultra Classic - 50 Mile RaceUnited States | 50mi | 10:36:00 h | 7.591 | 14/16 |
| 2001-02-17 | 50km | 5:55:04 h | 8.449 | 41/63 | |
| 2001-04-14 | Diez Vista 50K Trail RunCanada | 50km | 7:08:50 h | 6.996 | 97/122 |
| 2001-04-28 | 50km | 6:55:59 h | 7.212 | 104/154 | |
| 2001-05-19 | Silver State 50 MilesUnited States | 50mi | 12:06:37 h | 6.645 | 34/45 |
| 2001-06-02 | 50mi | 13:29:32 h | 5.964 | 101/130 | |
| 2001-07-13 | 100mi | 45:47:47 h | 3.514 | 57/64 | |
| 2001-09-02 | Walk in the Park 50KCanada | 50km | 7:23:54 h | 6.758 | 27/35 |
| 2002-02-16 | 50km | 6:45:50 h | 7.392 | 56/78 | |
| 2002-03-16 | Chuckanut 50KUnited States | 50km | 6:54:51 h | 7.232 | 97/118 |
| 2002-04-13 | Diez Vista 50K Trail RunCanada | 50km | 8:15:29 h | 6.055 | 110/117 |
| 2002-05-04 | 100km | 14:22:44 h | 6.955 | 142/191 | |
| 2002-07-13 | 50km | 7:02:52 h | 7.094 | 72/93 | |
| 2002-09-07 | McKenzie River 50 km Trail RunUnited States | 50km | 6:05:56 h | 8.198 | 49/81 |
| 2002-09-21 | Cle Elum Ridge 50kUnited States | 50km | 7:35:32 h | 6.586 | 68/99 |
| 2002-09-28 | 50km | 6:35:45 h | 7.581 | 42/51 | |
| 2002-10-26 | Baker Lake 50K Ultra Trail RunUnited States | 50km | 6:16:28 h | 7.969 | 31/55 |
| 2002-12-07 | 50mi | 10:46:54 h | 7.463 | 173/218 | |
| 2003-01-25 | 34mi | 7:59:00 h | 6.854 | 29/30 | |
| 2003-03-15 | Chuckanut 50KUnited States | 50km | 6:59:54 h | 7.145 | 127/165 |
| 2003-04-12 | Diez Vista 50K Trail RunCanada | 50km | 7:01:22 h | 7.120 | 81/138 |
| 2003-04-26 | 50km | 6:56:01 h | 7.211 | 116/177 | |
| 2003-10-11 | 50mi | 10:40:29 h | 7.538 | 56/70 | |
| 2003-10-25 | 50km | 7:53:21 h | 6.338 | 50/53 | |
| 2003-11-08 | 100mi | 27:39:50 h | 5.817 | 48/81 | |
| 2004-01-24 | Capitol Peak MegaFatAssUnited States | 34mi | 8:45:00 h | 6.253 | 24/24 |
| 2004-02-14 | 100mi | 39:48:00 h | 4.044 | 21/33 | |
| 2004-04-04 | 50mi | 9:39:58 h | 8.325 | 31/37 | |
| 2004-05-22 | Watershed Preserve 12 Hr Trail RaceUnited States | 12h | 51.880 km | 4.323 | 14/17 |
| 2006-10-07 | Baker Lake 50K Ultra Trail RunUnited States | 50km | 8:19:06 h | 6.011 | 106/113 |
| 2007-02-03 | Pigtails Run 50KUnited States | 50km | 6:21:55 h | 7.855 | 42/44 |
| 2007-02-10 | 50km | 8:09:00 h | 6.135 | 35/35 | |
| 2007-04-28 | Capitol Peak 50 MilerUnited States | 50mi | 10:46:36 h | 7.467 | 29/36 |
| 2007-05-19 | Watershed Preserve 12 Hr Trail RaceUnited States | 12h | 51.901 km | 4.325 | 46/56 |
| 2007-08-09 | McKenzie River 50 km Trail RunUnited States | 50km | 6:57:09 h | 7.192 | 135/151 |
| 2007-10-06 | Baker Lake 50K Ultra Trail RunUnited States | 50km | 7:44:43 h | 6.456 | 64/77 |
| 2008-01-27 | Cedar River Yours TrulyUnited States | 50km | 7:32:32 h | 6.629 | 12/13 |
| 2008-03-01 | 37mi | 8:53:29 h | 6.697 | 21/22 | |
| 2008-03-15 | Pacific Rim One DayUnited States | 24h | 50.000 km | 2.083 | 38/43 |
| 2008-04-13 | 50km | 8:01:03 h | 6.236 | 56/56 | |
| 2008-05-31 | The 20th Century 50K Trail RunUnited States | 50km | 5:49:44 h | 8.578 | 10/15 |
| 2008-09-06 | 50km | 6:15:31 h | 7.989 | 24/36 | |
| 2009-05-09 | 50km | 7:49:42 h | 6.387 | 148/163 | |
| 2009-06-06 | 50km | 7:14:42 h | 6.901 | 42/46 | |
| 2009-07-11 | 50km | 7:24:57 h | 6.742 | 146/157 | |
| 2009-12-19 | Pigtails Run 50KUnited States | 50km | 6:33:33 h | 7.623 | 30/32 |
| 2010-01-23 | Pigtails Run 50KUnited States | 50km | 6:23:37 h | 7.820 | 70/80 |
| 2010-02-06 | 50mi | 11:43:50 h | 6.860 | 150/247 | |
| 2010-02-28 | Post Oak Lodge 50K Trail ChallengeUnited States | 50km | 9:23:29 h | 5.324 | 50/55 |
| 2010-05-15 | 12h | 51.901 km | 4.325 | 74/80 | |
| 2010-07-17 | Soaring Eagle 50 Km Trail RunUnited States | 50km | 8:17:40 h | 6.028 | 17/17 |
| 2011-04-23 | Skagit Valley UltraUnited States | 50km | 6:10:00 h | 8.108 | 8/14 |
| 2011-05-14 | 12h | 77.852 km | 6.488 | 35/68 | |
| 2011-06-18 | 50km | 7:30:59 h | 6.652 | 49/55 | |
| 2011-08-14 | 12h | 95.646 km | 7.971 | 11/70 | |
| 2011-08-28 | 50km | 8:06:59 h | 6.160 | 80/85 | |
| 2011-12-31 | 24h | 119.955 km | 4.998 | 27/131 | |
| 2012-02-18 | 50km | 8:11:48 h | 6.100 | 24/24 | |
| 2012-03-03 | 37mi | 8:22:00 h | 7.117 | 22/24 | |
| 2012-03-17 | 24h | 106.216 km | 4.426 | 19/65 | |
| 2012-04-22 | 50mi | 11:11:07 h | 7.194 | 34/39 | |
| 2012-05-26 | 24h | 122.310 km | 5.096 | 24/53 | |
| 2012-08-12 | 12h | 80.932 km | 6.744 | 16/74 | |
| 2012-09-23 | Sri Chinmoy 7 Hour RaceUnited States | 7h | 49.889 km | 7.127 | 7/7 |
| 2012-10-13 | 50mi | 12:32:56 h | 6.412 | 90/98 | |
| 2012-10-27 | ORRC Autumn Leaves 50 km RunUnited States | 50km | 7:29:48 h | 6.670 | 39/48 |
| 2012-12-29 | 72h | 232.307 km | 3.226 | 26/65 | |
| 2013-02-16 | Woolley Trail Runs 50kUnited States | 50km | 7:52:16 h | 6.352 | 17/17 |
| 2013-03-16 | 24h | 50.000 km | 2.083 | 46/51 | |
| 2013-03-29 | 24h | 64.373 km | 2.682 | 23/26 | |
| 2013-04-28 | Mt. Si 50 km Ultra RunUnited States | 50km | 7:02:47 h | 7.096 | 47/61 |
| 2013-05-18 | 12h | 51.901 km | 4.325 | 63/64 | |
| 2013-06-08 | 28.8mi | 5:58:00 h | 7.768 | 20/29 | |
| 2013-06-22 | 50mi | 12:27:34 h | 6.458 | 30/34 | |
| 2013-08-11 | Transcendence 12 Hour Ultra RunUnited States | 12h | 83.384 km | 6.949 | 14/60 |
| 2013-09-21 | 50km | 7:18:21 h | 6.844 | 26/27 | |
| 2013-10-12 | Defiance 50kUnited States | 50km | 7:18:20 h | 6.844 | 93/105 |
| 2013-10-26 | ORRC Autumn Leaves 50 km RunUnited States | 50km | 7:09:51 h | 6.979 | 51/68 |
| 2013-12-28 | 6d | 442.648 km | 3.074 | 19/51 | |
| 2014-02-15 | Woolley Trail Runs 50kUnited States | 50km | 6:44:21 h | 7.419 | 22/26 |
| 2014-03-15 | 24h | 80.467 km | 3.353 | 23/41 | |
| 2014-03-22 | 12h | 61.798 km | 5.150 | 34/98 | |
| 2014-05-24 | 100mi | 26:57:00 h | 5.972 | 15/22 | |
| 2014-06-07 | 50mi | 14:19:15 h | 5.619 | 71/73 | |
| 2014-08-16 | Hamster Endurance Runs 24 Hour RunUnited States | 24h | 125.528 km | 5.230 | 1/8 |
| 2014-09-21 | 7h | 51.627 km | 7.375 | 8/13 | |
| 2014-10-11 | 50mi | 11:55:38 h | 6.747 | 77/85 | |
| 2014-10-25 | 50km | 7:08:31 h | 7.001 | 44/56 | |
| 2014-12-31 | 24h | 58.274 km | 2.428 | 44/47 | |
| 2015-03-14 | 12h | 51.499 km | 4.292 | 50/75 | |
| 2015-10-24 | 50km | 6:39:15 h | 7.514 | 44/60 | |
| 2016-01-30 | Lake Youngs Nuts RunUnited States | 50km | 7:24:43 h | 6.746 | 35/37 |
| 2016-03-19 | 24h | 99.779 km | 4.157 | 14/46 | |
| 2016-05-29 | Pigtails Challenge 50 KmUnited States | 50km | 7:57:15 h | 6.286 | 20/23 |
| 2016-06-18 | 50mi | 13:34:46 h | 5.926 | 19/19 | |
| 2016-07-10 | 50km | 7:02:54 h | 7.094 | 9/13 | |
| 2016-08-13 | 12h | 71.133 km | 5.928 | 8/24 | |
| 2019-08-03 | Mo' Bell 50 MilesUnited States | 50mi | 20:07:13 h | 3.999 | 21/27 |
| 2019-08-28 | 87h | 160.934 km | 1.850 | 76/124 | |
| 2019-09-21 | 12h | 62.764 km | 5.230 | 11/15 | |
| 2021-08-14 | 12h | 62.764 km | 5.230 | 11/15 |